Time;durP1;ratioP1;P1;durP2;ratioP2;P2;SDS_P1;SDS_P2;PMS_P1;PMS_P2;Temp;Humidity;BMP_temperature;BMP_pressure;BME280_temperature;BME280_humidity;BME280_pressure;Samples;Min_cycle;Max_cycle;Signal;HPM_P1;HPM_P2
2023/12/23 00:00:47;;;;;;;15.57;7.03;;;;;;;1.72;78.91;98008.05;125123;1099;104344;-79
2023/12/23 00:03:38;;;;;;;19.33;7.60;;;;;;;1.73;79.41;98008.09;125228;1099;104319;-80
2023/12/23 00:06:10;;;;;;;17.37;8.17;;;;;;;1.72;79.19;98006.33;125119;1102;102084;-78
2023/12/23 00:08:41;;;;;;;19.33;7.23;;;;;;;1.74;79.07;98012.41;125100;1102;102136;-78
2023/12/23 00:11:12;;;;;;;17.43;7.43;;;;;;;1.78;79.50;98021.16;125752;1099;104070;-78
2023/12/23 00:13:44;;;;;;;16.23;7.00;;;;;;;1.83;79.53;98019.59;125058;1099;102183;-78
2023/12/23 00:16:15;;;;;;;15.13;6.93;;;;;;;1.88;79.48;98001.63;125348;1099;104210;-78
2023/12/23 00:18:46;;;;;;;16.50;7.00;;;;;;;1.91;79.54;98007.75;125281;1098;104246;-78
2023/12/23 00:21:17;;;;;;;16.53;7.23;;;;;;;1.96;79.50;98002.72;125951;1099;104195;-78
2023/12/23 00:23:49;;;;;;;18.07;6.80;;;;;;;2.00;79.41;97994.23;125934;1099;101929;-78
2023/12/23 00:26:20;;;;;;;18.20;7.20;;;;;;;2.03;79.70;97986.56;125811;1098;102071;-78
2023/12/23 00:28:52;;;;;;;20.90;7.40;;;;;;;2.07;79.54;97997.86;125111;1099;104244;-79
2023/12/23 00:31:24;;;;;;;13.30;6.20;;;;;;;2.07;79.14;98003.04;125171;1102;102019;-78
2023/12/23 00:33:56;;;;;;;15.73;6.07;;;;;;;2.05;79.62;98005.58;125150;1102;104693;-78
2023/12/23 00:36:28;;;;;;;14.17;5.60;;;;;;;2.08;78.86;98015.15;125192;1098;102194;-78
2023/12/23 00:38:59;;;;;;;13.60;5.73;;;;;;;2.07;79.36;98009.11;125204;1099;104756;-78
2023/12/23 00:41:30;;;;;;;16.33;5.83;;;;;;;2.07;79.56;98014.28;125209;1099;104295;-79
2023/12/23 00:44:02;;;;;;;10.87;5.43;;;;;;;2.06;79.09;98017.69;125853;1099;101820;-78
2023/12/23 00:46:34;;;;;;;12.85;5.00;;;;;;;2.08;79.44;98030.67;125815;1099;102281;-78
2023/12/23 00:49:05;;;;;;;15.83;5.67;;;;;;;2.06;79.62;98030.62;125503;1098;102359;-78
2023/12/23 00:51:36;;;;;;;13.33;5.37;;;;;;;2.05;79.55;98036.63;125181;1099;101797;-78
2023/12/23 00:54:08;;;;;;;12.77;5.40;;;;;;;2.03;79.32;98027.08;125119;1099;104185;-78
2023/12/23 00:56:39;;;;;;;13.47;5.40;;;;;;;2.02;79.41;98036.53;125187;1102;102079;-78
2023/12/23 00:59:11;;;;;;;19.43;7.53;;;;;;;2.00;79.10;98045.96;125042;1099;101966;-79
2023/12/23 01:01:45;;;;;;;21.70;7.33;;;;;;;1.91;78.91;98100.86;124829;1099;104249;-78
2023/12/23 01:04:17;;;;;;;17.12;7.95;;;;;;;1.82;79.18;98095.39;125584;1099;104245;-79
2023/12/23 01:06:48;;;;;;;27.47;11.00;;;;;;;1.75;79.54;98108.98;125376;1099;104210;-79
2023/12/23 01:09:19;;;;;;;29.73;14.67;;;;;;;1.63;79.16;98104.28;124798;1099;101884;-78
2023/12/23 01:11:50;;;;;;;32.23;15.83;;;;;;;1.49;78.88;98098.66;124926;1099;102013;-78
2023/12/23 01:14:22;;;;;;;31.33;15.90;;;;;;;1.37;79.19;98111.16;125443;1099;104332;-78
2023/12/23 01:16:53;;;;;;;29.87;15.20;;;;;;;1.28;78.94;98111.75;125025;1099;102503;-79
2023/12/23 01:19:24;;;;;;;29.40;14.00;;;;;;;1.22;79.03;98106.38;125313;1099;104228;-79
2023/12/23 01:21:57;;;;;;;28.23;13.70;;;;;;;1.18;79.23;98097.63;125817;1099;102368;-79
2023/12/23 01:24:30;;;;;;;25.70;12.40;;;;;;;1.20;79.51;98095.09;125822;1099;104210;-78
2023/12/23 01:27:02;;;;;;;25.50;10.63;;;;;;;1.21;79.72;98095.14;125133;1099;101903;-78
2023/12/23 01:29:34;;;;;;;21.27;8.87;;;;;;;1.22;79.88;98085.70;125041;1099;102809;-79
2023/12/23 01:32:06;;;;;;;22.03;8.90;;;;;;;1.26;79.99;98092.72;125131;1099;102054;-78
2023/12/23 01:34:38;;;;;;;21.03;8.80;;;;;;;1.28;79.77;98090.18;125170;1099;104252;-78
2023/12/23 01:37:09;;;;;;;22.60;10.03;;;;;;;1.30;79.53;98085.97;125087;1099;104306;-78
2023/12/23 01:39:40;;;;;;;19.70;8.47;;;;;;;1.30;79.93;98068.75;125131;1099;104272;-80
2023/12/23 01:42:12;;;;;;;19.37;8.17;;;;;;;1.28;79.97;98079.84;125060;1099;104319;-78
2023/12/23 01:44:43;;;;;;;20.57;8.37;;;;;;;1.25;80.06;98080.64;124974;1098;102022;-79
2023/12/23 01:47:15;;;;;;;22.70;9.50;;;;;;;1.20;80.17;98085.66;125027;1099;104205;-78
2023/12/23 01:49:47;;;;;;;21.70;9.03;;;;;;;1.15;79.76;98086.31;125113;1099;101935;-79
2023/12/23 01:52:19;;;;;;;20.30;8.87;;;;;;;1.11;79.69;98089.61;125108;1099;101811;-77
2023/12/23 01:54:50;;;;;;;23.20;9.50;;;;;;;1.06;79.84;98085.19;125418;1099;104220;-77
2023/12/23 01:57:22;;;;;;;20.27;9.23;;;;;;;1.01;79.95;98086.73;125270;1099;102179;-77
2023/12/23 01:59:54;;;;;;;26.70;10.15;;;;;;;0.96;79.94;98077.93;125196;1099;101808;-77
2023/12/23 02:02:28;;;;;;;19.90;9.60;;;;;;;0.93;80.12;98076.95;125205;1099;102836;-77
2023/12/23 02:05:01;;;;;;;21.70;9.30;;;;;;;0.89;80.02;98075.98;125019;1099;104271;-77
2023/12/23 02:07:32;;;;;;;23.57;9.37;;;;;;;0.87;80.39;98078.51;125567;1099;101855;-76
2023/12/23 02:10:04;;;;;;;21.80;9.45;;;;;;;0.85;79.82;98068.94;125973;1098;101868;-77
2023/12/23 02:12:41;;;;;;;22.30;9.67;;;;;;;0.85;80.20;98074.10;125132;1099;101845;-77
2023/12/23 02:15:15;;;;;;;19.00;8.50;;;;;;;0.82;80.66;98072.28;125934;1099;102232;-77
2023/12/23 02:17:45;;;;;;;;;;;;;;;0.81;80.55;98064.48;125809;1099;101836;-78
2023/12/23 02:20:17;;;;;;;23.97;10.30;;;;;;;0.78;80.23;98057.53;125979;1099;101865;-77
2023/12/23 02:22:49;;;;;;;21.47;9.17;;;;;;;0.79;80.15;98048.94;125794;1099;104208;-77
2023/12/23 02:25:20;;;;;;;19.37;9.03;;;;;;;0.78;80.29;98042.04;125936;1099;101856;-77
2023/12/23 02:27:55;;;;;;;23.13;9.80;;;;;;;0.75;80.01;98041.03;125665;1099;104169;-77
2023/12/23 02:30:26;;;;;;;;;;;;;;;0.70;79.92;98039.19;125550;1099;104182;-77
2023/12/23 02:32:57;;;;;;;23.93;9.83;;;;;;;0.64;79.71;98035.48;125651;1098;101862;-77
2023/12/23 02:35:29;;;;;;;22.80;9.93;;;;;;;0.60;79.96;98033.64;125804;1099;101855;-76
2023/12/23 02:38:01;;;;;;;20.97;9.83;;;;;;;0.61;80.04;98044.02;125955;1099;102102;-76
2023/12/23 02:40:32;;;;;;;24.23;10.67;;;;;;;0.62;80.34;98038.02;125895;1098;102453;-77
2023/12/23 02:43:03;;;;;;;23.33;10.23;;;;;;;0.62;79.93;98035.44;125969;1099;101874;-76
2023/12/23 02:45:34;;;;;;;23.23;10.00;;;;;;;0.63;79.92;98031.17;126005;1099;104236;-77
2023/12/23 02:48:06;;;;;;;25.30;11.03;;;;;;;0.65;80.29;98037.26;125890;1099;104259;-76
2023/12/23 02:50:38;;;;;;;22.80;10.40;;;;;;;0.64;80.08;98038.97;125800;1098;104217;-76
2023/12/23 02:53:09;;;;;;;21.77;9.67;;;;;;;0.64;80.33;98036.39;125174;1099;104194;-76
2023/12/23 02:55:41;;;;;;;18.20;7.70;;;;;;;0.62;80.41;98052.64;125750;1098;104309;-77
2023/12/23 02:58:12;;;;;;;21.83;8.70;;;;;;;0.59;80.51;98071.45;125017;1099;102198;-77
2023/12/23 03:00:43;;;;;;;20.23;8.60;;;;;;;0.57;80.36;98072.25;125685;1099;104173;-77
2023/12/23 03:03:15;;;;;;;23.87;8.27;;;;;;;0.56;80.36;98085.97;125924;1098;102288;-77
2023/12/23 03:05:46;;;;;;;20.03;9.03;;;;;;;0.59;80.65;98081.78;125889;1098;104277;-77
2023/12/23 03:08:17;;;;;;;19.47;8.53;;;;;;;0.61;80.76;98090.48;125123;1102;104246;-77
2023/12/23 03:10:48;;;;;;;20.07;8.53;;;;;;;0.65;81.13;98099.20;125161;1099;104667;-76
2023/12/23 03:13:20;;;;;;;20.17;8.80;;;;;;;0.66;80.70;98108.72;125908;1099;109472;-77
2023/12/23 03:15:51;;;;;;;19.47;7.37;;;;;;;0.68;80.81;98105.34;125867;1099;102083;-77
2023/12/23 03:18:22;;;;;;;20.87;8.77;;;;;;;0.70;80.64;98108.88;125833;1098;104255;-76
2023/12/23 03:20:54;;;;;;;18.43;7.77;;;;;;;0.73;80.90;98099.48;125764;1099;102557;-76
2023/12/23 03:23:25;;;;;;;18.00;7.80;;;;;;;0.74;80.80;98106.41;125960;1099;104267;-76
2023/12/23 03:25:56;;;;;;;19.20;8.27;;;;;;;0.76;80.83;98100.45;125988;1098;102211;-76
2023/12/23 03:28:28;;;;;;;19.47;7.90;;;;;;;0.77;81.11;98102.23;125602;1099;101811;-76
2023/12/23 03:31:00;;;;;;;20.77;7.97;;;;;;;0.81;80.97;98100.63;125862;1099;102109;-76
2023/12/23 03:33:31;;;;;;;19.30;8.10;;;;;;;0.83;81.01;98101.58;125668;1098;104178;-76
2023/12/23 03:36:03;;;;;;;18.10;7.63;;;;;;;0.85;81.08;98090.46;125845;1099;101852;-76
2023/12/23 03:38:34;;;;;;;18.93;7.07;;;;;;;0.86;81.00;98091.36;125680;1099;101784;-76
2023/12/23 03:41:06;;;;;;;18.70;8.20;;;;;;;0.86;81.24;98093.94;125845;1099;104216;-76
2023/12/23 03:43:37;;;;;;;16.23;7.37;;;;;;;0.85;80.44;98099.92;125734;1099;101912;-76
2023/12/23 03:46:08;;;;;;;19.83;7.93;;;;;;;0.85;81.03;98089.59;125852;1098;102205;-76
2023/12/23 03:48:40;;;;;;;17.83;7.87;;;;;;;0.83;81.16;98096.42;125274;1099;102340;-76
2023/12/23 03:51:12;;;;;;;19.37;8.57;;;;;;;0.80;81.22;98091.14;125802;1099;104182;-76
2023/12/23 03:53:43;;;;;;;19.57;8.40;;;;;;;0.77;81.35;98096.20;125828;1099;103700;-76
2023/12/23 03:56:14;;;;;;;21.13;8.00;;;;;;;0.76;80.84;98091.84;125399;1099;102371;-76
2023/12/23 03:58:46;;;;;;;19.83;7.73;;;;;;;0.73;80.75;98084.86;126121;1099;104223;-77
2023/12/23 04:01:17;;;;;;;22.77;8.40;;;;;;;0.73;81.41;98083.99;125969;1098;104246;-76
2023/12/23 04:03:49;;;;;;;18.57;8.07;;;;;;;0.72;81.07;98072.80;126008;1099;104348;-76
2023/12/23 04:06:20;;;;;;;18.57;7.47;;;;;;;0.71;81.25;98066.73;125844;1099;104198;-76
2023/12/23 04:08:51;;;;;;;17.53;7.47;;;;;;;0.70;81.19;98066.68;125242;1099;102634;-76
2023/12/23 04:11:23;;;;;;;19.40;7.83;;;;;;;0.66;81.25;98072.58;125190;1099;102148;-76
2023/12/23 04:13:54;;;;;;;18.70;7.77;;;;;;;0.65;81.16;98066.52;125242;1100;101982;-76
2023/12/23 04:16:25;;;;;;;20.37;8.20;;;;;;;0.64;81.26;98074.20;125260;1099;102471;-77
2023/12/23 04:18:56;;;;;;;19.00;7.60;;;;;;;0.61;81.16;98067.25;125209;1099;102105;-76
2023/12/23 04:21:27;;;;;;;18.43;7.50;;;;;;;0.59;81.15;98068.01;125221;1099;102127;-76
2023/12/23 04:23:59;;;;;;;20.70;8.40;;;;;;;0.55;81.08;98072.19;125235;1099;101883;-76
2023/12/23 04:26:31;;;;;;;22.55;8.70;;;;;;;0.51;81.17;98078.05;125280;1099;102057;-77
2023/12/23 04:29:02;;;;;;;21.63;8.60;;;;;;;0.49;81.08;98072.84;125310;1099;104245;-76
2023/12/23 04:31:34;;;;;;;22.40;8.90;;;;;;;0.49;81.15;98067.67;125170;1102;101833;-76
2023/12/23 04:34:05;;;;;;;20.07;7.80;;;;;;;0.48;81.28;98072.78;125409;1099;104162;-76
2023/12/23 04:36:37;;;;;;;21.00;7.57;;;;;;;0.45;81.25;98072.67;125623;1099;104307;-77
2023/12/23 04:39:09;;;;;;;17.00;7.37;;;;;;;0.40;81.23;98067.34;125367;1099;101887;-77
2023/12/23 04:41:47;;;;;;;19.90;7.40;;;;;;;0.37;81.13;98068.94;126212;1099;101791;-76
2023/12/23 04:44:18;;;;;;;21.43;7.20;;;;;;;0.36;81.01;98073.23;126050;1098;104242;-77
2023/12/23 04:46:51;;;;;;;17.30;6.77;;;;;;;0.35;80.88;98071.45;126060;1099;104175;-77
2023/12/23 04:49:22;;;;;;;16.83;7.13;;;;;;;0.33;81.33;98062.80;125169;1099;101826;-78
2023/12/23 04:51:54;;;;;;;22.10;7.97;;;;;;;0.30;82.08;98053.23;125804;1099;104284;-77
2023/12/23 04:54:25;;;;;;;17.33;8.20;;;;;;;0.28;81.63;98049.73;125100;1099;104275;-77
2023/12/23 04:56:56;;;;;;;19.30;9.27;;;;;;;0.26;81.44;98061.66;125817;1099;104326;-77
2023/12/23 04:59:28;;;;;;;25.50;10.17;;;;;;;0.25;81.16;98062.51;125818;1099;102518;-77
2023/12/23 05:01:59;;;;;;;23.87;10.53;;;;;;;0.24;81.36;98060.74;125814;1099;101964;-77
2023/12/23 05:04:30;;;;;;;25.27;11.57;;;;;;;0.25;81.67;98070.25;125611;1099;104246;-77
2023/12/23 05:07:02;;;;;;;23.93;10.30;;;;;;;0.24;81.52;98067.61;125903;1098;104176;-77
2023/12/23 05:09:34;;;;;;;25.47;11.60;;;;;;;0.22;81.35;98062.39;125619;1099;104182;-77
2023/12/23 05:12:07;;;;;;;22.80;10.17;;;;;;;0.21;81.72;98068.36;125852;1099;102312;-77
2023/12/23 05:14:38;;;;;;;18.80;8.77;;;;;;;0.19;81.48;98070.02;125865;1099;102083;-77
2023/12/23 05:17:09;;;;;;;18.83;7.90;;;;;;;0.16;81.02;98080.22;125948;1098;104188;-77
2023/12/23 05:19:43;;;;;;;18.83;7.17;;;;;;;0.14;81.17;98082.73;125801;1099;102351;-77
2023/12/23 05:22:14;;;;;;;17.50;5.90;;;;;;;0.11;81.16;98084.30;125348;1099;101868;-77
2023/12/23 05:24:48;;;;;;;15.20;5.87;;;;;;;0.09;81.66;98083.38;125070;1099;104526;-77
2023/12/23 05:27:19;;;;;;;17.67;5.97;;;;;;;0.07;81.27;98087.60;125164;1099;104386;-78
2023/12/23 05:29:50;;;;;;;16.60;6.03;;;;;;;0.07;81.21;98083.31;125133;1099;104211;-78
2023/12/23 05:32:22;;;;;;;25.67;10.27;;;;;;;0.06;81.85;98091.86;125376;1099;104214;-78
2023/12/23 05:34:53;;;;;;;40.90;17.57;;;;;;;0.01;81.52;98095.10;125439;1099;104265;-78
2023/12/23 05:37:24;;;;;;;44.63;20.67;;;;;;;-0.03;81.24;98091.53;125441;1099;104166;-79
2023/12/23 05:39:55;;;;;;;49.07;24.57;;;;;;;-0.09;81.37;98101.61;125422;1099;104248;-78
2023/12/23 05:42:27;;;;;;;42.50;21.65;;;;;;;-0.14;82.57;98098.84;125447;1099;102006;-78
2023/12/23 05:44:58;;;;;;;46.13;21.60;;;;;;;-0.15;81.37;98099.66;125382;1099;104227;-77
2023/12/23 05:47:29;;;;;;;42.63;22.10;;;;;;;-0.13;82.08;98104.88;125575;1099;104192;-78
2023/12/23 05:50:00;;;;;;;40.00;19.43;;;;;;;-0.14;82.19;98111.73;125653;1099;101970;-77
2023/12/23 05:52:32;;;;;;;38.43;17.80;;;;;;;-0.15;81.98;98103.94;125554;1099;104274;-78
2023/12/23 05:55:03;;;;;;;34.83;17.40;;;;;;;-0.10;81.91;98112.73;125626;1099;102537;-77
2023/12/23 05:57:34;;;;;;;41.03;18.27;;;;;;;-0.04;82.01;98115.55;125388;1099;104214;-77
2023/12/23 06:00:13;;;;;;;38.55;19.00;;;;;;;0.03;81.84;98124.39;125759;1099;102271;-77
2023/12/23 06:02:44;;;;;;;40.37;19.93;;;;;;;0.10;82.01;98136.72;125025;1099;102234;-78
2023/12/23 06:05:15;;;;;;;40.05;19.15;;;;;;;0.15;82.03;98136.05;125484;1098;104322;-77
2023/12/23 06:07:47;;;;;;;35.67;17.63;;;;;;;0.21;81.98;98139.72;125592;1098;102297;-78
2023/12/23 06:10:19;;;;;;;36.23;17.23;;;;;;;0.23;81.89;98145.80;125531;1099;104181;-77
2023/12/23 06:12:50;;;;;;;35.53;18.00;;;;;;;0.24;82.16;98144.99;125654;1099;104169;-79
2023/12/23 06:15:21;;;;;;;36.00;17.80;;;;;;;0.31;82.01;98152.12;125736;1099;101958;-78
2023/12/23 06:17:53;;;;;;;41.03;18.53;;;;;;;0.38;82.23;98155.84;125651;1099;104178;-78
2023/12/23 06:20:24;;;;;;;38.17;18.60;;;;;;;0.44;81.99;98149.20;125805;1099;101731;-77
2023/12/23 06:22:55;;;;;;;43.43;20.40;;;;;;;0.51;82.36;98156.37;125675;1099;102490;-77
2023/12/23 06:25:26;;;;;;;45.97;20.47;;;;;;;0.58;82.21;98161.73;125682;1099;104172;-77
2023/12/23 06:27:58;;;;;;;41.33;20.50;;;;;;;0.63;82.04;98170.55;125624;1099;102050;-77
2023/12/23 06:30:29;;;;;;;43.00;20.70;;;;;;;0.66;82.07;98175.83;125475;1099;104287;-78
2023/12/23 06:33:00;;;;;;;42.37;19.00;;;;;;;0.70;82.55;98170.84;125560;1099;104320;-77
2023/12/23 06:35:31;;;;;;;41.07;18.53;;;;;;;0.77;82.61;98168.48;125597;1099;104220;-78
2023/12/23 06:38:03;;;;;;;40.27;18.03;;;;;;;0.85;82.66;98167.05;125809;1098;104221;-77
2023/12/23 06:40:34;;;;;;;36.17;15.67;;;;;;;0.92;82.51;98163.88;125611;1099;102716;-78
2023/12/23 06:43:05;;;;;;;33.37;14.07;;;;;;;0.98;82.53;98169.27;125422;1098;102032;-77
2023/12/23 06:45:37;;;;;;;30.50;13.63;;;;;;;1.04;82.62;98156.58;125728;1099;104193;-77
2023/12/23 06:48:09;;;;;;;28.37;12.70;;;;;;;1.10;82.37;98155.89;125925;1099;102186;-77
2023/12/23 06:50:40;;;;;;;26.77;10.20;;;;;;;1.16;82.69;98152.66;125928;1099;103270;-78
2023/12/23 06:53:11;;;;;;;25.77;9.80;;;;;;;1.19;82.39;98158.80;125745;1099;104217;-77
2023/12/23 06:55:43;;;;;;;24.70;8.43;;;;;;;1.21;82.63;98151.97;125825;1099;104245;-78
2023/12/23 06:58:14;;;;;;;20.83;8.00;;;;;;;1.25;82.66;98150.41;125675;1099;101855;-78
2023/12/23 07:00:45;;;;;;;24.20;8.40;;;;;;;1.30;82.71;98158.31;125572;1099;104302;-78
2023/12/23 07:03:16;;;;;;;19.10;8.17;;;;;;;1.35;82.78;98170.55;125598;1099;102019;-78
2023/12/23 07:05:50;;;;;;;51.40;27.80;;;;;;;1.38;82.29;98164.61;125479;1099;105661;-78
2023/12/23 07:08:24;;;;;;;61.40;31.48;;;;;;;1.29;82.00;98183.25;125492;1099;102499;-77
2023/12/23 07:10:55;;;;;;;57.98;29.77;;;;;;;1.21;81.96;98175.23;125536;1099;102035;-78
2023/12/23 07:13:27;;;;;;;57.37;30.70;;;;;;;1.15;81.80;98174.14;125476;1098;104198;-78
2023/12/23 07:15:58;;;;;;;57.00;30.43;;;;;;;1.12;82.20;98180.06;125607;1099;104238;-77
2023/12/23 07:18:29;;;;;;;57.90;31.53;;;;;;;1.10;81.71;98171.39;125229;1099;104281;-78
2023/12/23 07:21:02;;;;;;;52.20;28.10;;;;;;;1.08;82.10;98175.64;125528;1099;104173;-79
2023/12/23 07:23:33;;;;;;;57.43;29.63;;;;;;;1.03;82.04;98166.85;125633;1099;101926;-79
2023/12/23 07:26:06;;;;;;;55.10;29.20;;;;;;;0.99;81.94;98168.42;125662;1099;104182;-78
2023/12/23 07:28:37;;;;;;;53.03;27.37;;;;;;;1.01;82.40;98164.22;125419;1099;104351;-78
2023/12/23 07:31:09;;;;;;;52.13;25.63;;;;;;;1.04;82.28;98177.23;125815;1099;104310;-78
2023/12/23 07:33:40;;;;;;;54.63;26.90;;;;;;;1.08;82.55;98186.84;125715;1099;102567;-80
2023/12/23 07:36:11;;;;;;;54.60;25.80;;;;;;;1.16;81.97;98178.49;125858;1099;104051;-79
2023/12/23 07:38:43;;;;;;;45.00;23.33;;;;;;;1.21;82.18;98176.94;125900;1099;110858;-78
2023/12/23 07:41:14;;;;;;;45.27;22.80;;;;;;;1.29;82.49;98185.83;125306;1099;102629;-78
2023/12/23 07:43:45;;;;;;;44.03;22.30;;;;;;;1.36;82.45;98198.16;125518;1099;104242;-79
2023/12/23 07:46:16;;;;;;;36.37;18.57;;;;;;;1.42;82.16;98188.03;125062;1099;104210;-78
2023/12/23 07:48:48;;;;;;;39.07;18.27;;;;;;;1.51;82.80;98181.41;125175;1099;104178;-78
2023/12/23 07:51:21;;;;;;;41.10;20.07;;;;;;;1.59;82.31;98182.55;125659;1099;101877;-78
2023/12/23 07:53:53;;;;;;;38.50;18.15;;;;;;;1.67;82.24;98180.22;125741;1099;104194;-78
2023/12/23 07:56:25;;;;;;;36.63;17.90;;;;;;;1.73;82.40;98183.91;125668;1098;104194;-78
2023/12/23 07:58:57;;;;;;;38.00;17.45;;;;;;;1.82;82.80;98197.97;125755;1099;102080;-78
2023/12/23 08:01:28;;;;;;;33.73;17.93;;;;;;;1.87;82.33;98206.75;125773;1099;104258;-78
2023/12/23 08:04:00;;;;;;;39.70;20.35;;;;;;;1.89;81.84;98212.88;125801;1099;102071;-78
2023/12/23 08:06:31;;;;;;;34.47;18.23;;;;;;;1.88;82.13;98222.31;125112;1099;101826;-78
2023/12/23 08:09:02;;;;;;;45.20;21.17;;;;;;;1.86;82.03;98225.70;125632;1099;102015;-78
2023/12/23 08:11:35;;;;;;;46.57;23.43;;;;;;;1.83;82.16;98230.77;125635;1098;104112;-78
2023/12/23 08:14:06;;;;;;;37.97;20.37;;;;;;;1.83;82.29;98230.77;125825;1099;104252;-78
2023/12/23 08:16:37;;;;;;;31.70;14.97;;;;;;;1.79;81.54;98234.94;125839;1099;102735;-78
2023/12/23 08:19:09;;;;;;;33.90;18.07;;;;;;;1.72;81.71;98236.44;125663;1099;102655;-78
2023/12/23 08:21:40;;;;;;;29.67;15.43;;;;;;;1.73;81.85;98245.06;125879;1098;102698;-78
2023/12/23 08:24:13;;;;;;;32.37;15.37;;;;;;;1.77;82.22;98250.40;125764;1099;104175;-78
2023/12/23 08:26:44;;;;;;;32.97;16.47;;;;;;;1.81;82.20;98246.23;126186;1097;104214;-78
2023/12/23 08:29:16;;;;;;;31.00;15.63;;;;;;;1.86;82.24;98257.60;126035;1098;104656;-78
2023/12/23 08:31:47;;;;;;;34.63;17.33;;;;;;;1.88;82.05;98258.52;125925;1099;103022;-78
2023/12/23 08:34:19;;;;;;;35.87;17.17;;;;;;;1.92;81.80;98259.53;125158;1102;102094;-79
2023/12/23 08:36:50;;;;;;;44.60;21.40;;;;;;;1.93;82.29;98261.27;125135;1099;104233;-76
2023/12/23 08:39:22;;;;;;;41.77;22.77;;;;;;;1.95;82.05;98257.05;125800;1099;104080;-78
2023/12/23 08:41:53;;;;;;;38.30;18.57;;;;;;;1.97;82.86;98270.91;125838;1099;104178;-78
2023/12/23 08:44:24;;;;;;;28.03;14.17;;;;;;;1.98;82.13;98262.33;126042;1099;104198;-78
2023/12/23 08:46:56;;;;;;;26.50;12.43;;;;;;;2.06;82.19;98260.86;126384;1099;102109;-78
2023/12/23 08:49:27;;;;;;;26.63;11.83;;;;;;;2.12;82.03;98248.13;126207;1099;102253;-78
2023/12/23 08:51:58;;;;;;;23.77;11.30;;;;;;;2.21;82.10;98250.13;126281;1098;101826;-77
2023/12/23 08:54:29;;;;;;;23.73;10.57;;;;;;;2.26;82.31;98255.45;126068;1099;101787;-77
2023/12/23 08:57:01;;;;;;;37.13;14.97;;;;;;;2.27;81.31;98249.45;125717;1099;102045;-78
2023/12/23 08:59:32;;;;;;;35.90;18.50;;;;;;;2.14;81.46;98243.88;125699;1099;104245;-78
2023/12/23 09:02:04;;;;;;;38.07;17.80;;;;;;;2.10;81.60;98249.80;126162;1099;104189;-78
2023/12/23 09:04:35;;;;;;;36.70;16.73;;;;;;;2.04;81.60;98253.87;125674;1099;104265;-78
2023/12/23 09:07:08;;;;;;;32.03;15.70;;;;;;;1.96;80.81;98258.78;125922;1099;101822;-79
2023/12/23 09:09:42;;;;;;;32.27;14.37;;;;;;;1.94;81.54;98265.63;126198;1098;104172;-79
2023/12/23 09:12:13;;;;;;;28.70;13.60;;;;;;;1.93;81.65;98258.68;126237;1099;102057;-79
2023/12/23 09:14:44;;;;;;;28.73;13.20;;;;;;;1.96;81.43;98262.27;126240;1098;104107;-79
2023/12/23 09:17:15;;;;;;;26.87;13.33;;;;;;;2.00;81.85;98264.97;126209;1099;104166;-79
2023/12/23 09:19:47;;;;;;;27.77;13.40;;;;;;;2.04;82.03;98264.22;125505;1099;102051;-79
2023/12/23 09:22:19;;;;;;;29.00;13.63;;;;;;;2.11;81.37;98264.48;126242;1099;101881;-80
2023/12/23 09:24:50;;;;;;;27.63;13.03;;;;;;;2.14;81.75;98267.16;126572;1098;104310;-79
2023/12/23 09:27:21;;;;;;;26.73;13.73;;;;;;;2.16;81.61;98273.26;125550;1099;104082;-79
2023/12/23 09:29:55;;;;;;;28.10;12.43;;;;;;;2.23;82.22;98278.64;125956;1099;102012;-80
2023/12/23 09:32:25;;;;;;;;;;;;;;;2.21;81.42;98276.00;125733;1099;104176;-79
2023/12/23 09:34:56;;;;;;;25.13;10.93;;;;;;;2.30;82.33;98278.89;126245;1099;102082;-80
2023/12/23 09:37:27;;;;;;;21.50;9.57;;;;;;;2.47;82.28;98263.91;126172;1099;102079;-80
2023/12/23 09:40:01;;;;;;;21.63;8.70;;;;;;;2.62;82.23;98271.30;125849;1099;102147;-79
2023/12/23 09:42:32;;;;;;;18.30;8.33;;;;;;;2.71;81.67;98268.09;125174;1100;104392;-80
2023/12/23 09:45:04;;;;;;;23.63;8.60;;;;;;;2.78;82.36;98264.88;126379;1097;101794;-79
2023/12/23 09:47:35;;;;;;;18.07;7.30;;;;;;;2.84;81.86;98259.88;125892;1099;104175;-79
2023/12/23 09:50:08;;;;;;;17.73;7.43;;;;;;;2.94;82.15;98258.44;126150;1098;101960;-80
2023/12/23 09:52:40;;;;;;;17.85;8.00;;;;;;;3.00;81.53;98257.75;126065;1099;102136;-80
2023/12/23 09:55:13;;;;;;;14.17;6.20;;;;;;;3.14;82.10;98259.03;125934;1098;102528;-79
2023/12/23 09:57:44;;;;;;;13.03;6.10;;;;;;;3.21;81.37;98254.89;125902;1099;104677;-80
2023/12/23 10:00:17;;;;;;;14.37;6.43;;;;;;;3.19;81.85;98257.44;126293;1099;104187;-78
2023/12/23 10:02:48;;;;;;;16.50;6.77;;;;;;;3.23;81.89;98272.25;126361;1099;102026;-77
2023/12/23 10:05:20;;;;;;;13.97;6.10;;;;;;;3.21;82.56;98273.94;126050;1099;104336;-77
2023/12/23 10:07:56;;;;;;;13.97;5.73;;;;;;;3.12;81.92;98267.61;125866;1099;104204;-78
2023/12/23 10:10:28;;;;;;;13.93;6.10;;;;;;;3.09;82.01;98264.94;125751;1099;104179;-76
2023/12/23 10:12:59;;;;;;;13.80;6.07;;;;;;;3.12;81.54;98270.20;125363;1099;102243;-77
2023/12/23 10:15:31;;;;;;;14.17;5.80;;;;;;;3.15;81.36;98272.89;126197;1099;104303;-77
2023/12/23 10:18:04;;;;;;;14.37;6.20;;;;;;;3.19;82.14;98267.80;125768;1099;101821;-80
2023/12/23 10:20:35;;;;;;;12.43;5.93;;;;;;;3.18;80.93;98267.77;125376;1099;101833;-79
2023/12/23 10:23:08;;;;;;;12.33;5.50;;;;;;;3.18;81.46;98276.44;125584;1099;104267;-79
2023/12/23 10:25:40;;;;;;;10.97;4.80;;;;;;;3.22;81.52;98280.85;125512;1099;102084;-80
2023/12/23 10:28:12;;;;;;;8.30;4.17;;;;;;;3.27;80.32;98285.30;125413;1099;104185;-80
2023/12/23 10:30:49;;;;;;;11.40;4.70;;;;;;;3.33;81.04;98283.76;125668;1099;102096;-80
2023/12/23 10:33:22;;;;;;;12.23;5.30;;;;;;;3.43;81.95;98282.33;125434;1099;101884;-80
2023/12/23 10:35:57;;;;;;;10.00;5.07;;;;;;;3.41;80.52;98277.10;125357;1099;104207;-81
2023/12/23 10:38:29;;;;;;;10.33;4.90;;;;;;;3.38;81.68;98279.61;125425;1099;104242;-80
2023/12/23 10:41:09;;;;;;;12.83;5.03;;;;;;;3.40;81.07;98287.43;125319;1099;104373;-80
2023/12/23 10:43:41;;;;;;;10.67;4.47;;;;;;;3.41;79.50;98291.76;125343;1099;104204;-81
2023/12/23 10:46:15;;;;;;;11.20;4.90;;;;;;;3.40;79.84;98285.70;125279;1099;102271;-80
2023/12/23 10:48:48;;;;;;;10.63;4.83;;;;;;;3.41;80.47;98290.06;125374;1099;104284;-80
2023/12/23 10:51:21;;;;;;;9.50;4.33;;;;;;;3.46;78.69;98291.89;125243;1099;104172;-79
2023/12/23 10:53:55;;;;;;;9.45;4.33;;;;;;;3.50;78.71;98289.43;125187;1099;101989;-79
2023/12/23 10:56:28;;;;;;;11.60;3.80;;;;;;;3.60;78.71;98294.05;125307;1099;102033;-80
2023/12/23 10:59:00;;;;;;;8.57;3.90;;;;;;;3.67;78.35;98283.84;125342;1099;104230;-79
2023/12/23 11:01:34;;;;;;;8.57;3.40;;;;;;;3.70;77.39;98287.39;125136;1099;104197;-80
2023/12/23 11:04:06;;;;;;;11.10;3.83;;;;;;;3.78;76.99;98280.69;124786;1099;101861;-79
2023/12/23 11:06:41;;;;;;;5.87;3.30;;;;;;;3.82;74.21;98299.83;125318;1099;102293;-80
2023/12/23 11:09:14;;;;;;;9.37;3.93;;;;;;;3.87;74.52;98284.39;124723;1100;101931;-80
2023/12/23 11:11:47;;;;;;;7.83;3.60;;;;;;;3.98;73.26;98282.95;125325;1099;102191;-81
2023/12/23 11:14:19;;;;;;;11.23;3.30;;;;;;;4.07;71.22;98277.13;125427;1099;104169;-80
2023/12/23 11:16:56;;;;;;;8.57;3.27;;;;;;;4.09;70.00;98270.25;125489;1099;104194;-80
2023/12/23 11:19:27;;;;;;;8.23;3.30;;;;;;;4.16;71.58;98266.98;125382;1099;102077;-80
2023/12/23 11:22:23;;;;;;;8.70;3.40;;;;;;;4.20;69.90;98273.13;125377;1099;104358;-79
2023/12/23 11:24:55;;;;;;;15.03;3.30;;;;;;;4.23;70.46;98268.88;125291;1099;104197;-80
2023/12/23 11:27:35;;;;;;;11.23;3.13;;;;;;;4.27;70.75;98265.53;124820;1099;102130;-79
2023/12/23 11:30:08;;;;;;;8.63;3.00;;;;;;;4.25;67.12;98267.19;125393;1099;104162;-78
2023/12/23 11:32:43;;;;;;;5.67;2.70;;;;;;;4.17;67.06;98268.72;125057;1099;102015;-78
2023/12/23 11:35:15;;;;;;;9.03;2.80;;;;;;;4.10;66.25;98272.02;125418;1099;104265;-79